sensor_id;sensor_type;location;lat;lon;timestamp;P1;durP1;ratioP1;P2;durP2;ratioP2
35847;SDS011;22332;51.954;20.118;2023-03-03T00:01:16;83.60;;;36.10;;
35847;SDS011;22332;51.954;20.118;2023-03-03T00:04:23;82.40;;;36.70;;
35847;SDS011;22332;51.954;20.118;2023-03-03T00:07:29;86.70;;;38.70;;
35847;SDS011;22332;51.954;20.118;2023-03-03T00:10:35;96.80;;;38.90;;
35847;SDS011;22332;51.954;20.118;2023-03-03T00:13:43;90.90;;;38.40;;
35847;SDS011;22332;51.954;20.118;2023-03-03T00:16:51;95.60;;;39.70;;
35847;SDS011;22332;51.954;20.118;2023-03-03T00:19:57;88.50;;;37.50;;
35847;SDS011;22332;51.954;20.118;2023-03-03T00:23:12;102.00;;;38.70;;
35847;SDS011;22332;51.954;20.118;2023-03-03T00:26:21;99.60;;;39.40;;
35847;SDS011;22332;51.954;20.118;2023-03-03T00:29:32;94.70;;;37.50;;
35847;SDS011;22332;51.954;20.118;2023-03-03T00:32:41;109.10;;;39.10;;
35847;SDS011;22332;51.954;20.118;2023-03-03T00:35:49;97.00;;;37.30;;
35847;SDS011;22332;51.954;20.118;2023-03-03T00:38:55;98.10;;;37.10;;
35847;SDS011;22332;51.954;20.118;2023-03-03T00:42:14;100.40;;;38.20;;
35847;SDS011;22332;51.954;20.118;2023-03-03T00:45:28;106.60;;;38.20;;
35847;SDS011;22332;51.954;20.118;2023-03-03T00:48:41;125.00;;;43.00;;
35847;SDS011;22332;51.954;20.118;2023-03-03T00:51:48;124.40;;;43.90;;
35847;SDS011;22332;51.954;20.118;2023-03-03T00:54:54;113.90;;;41.50;;
35847;SDS011;22332;51.954;20.118;2023-03-03T00:58:00;111.70;;;41.60;;
35847;SDS011;22332;51.954;20.118;2023-03-03T01:01:08;109.40;;;40.20;;
35847;SDS011;22332;51.954;20.118;2023-03-03T01:04:20;108.00;;;41.50;;
35847;SDS011;22332;51.954;20.118;2023-03-03T01:07:25;101.80;;;39.20;;
35847;SDS011;22332;51.954;20.118;2023-03-03T01:10:32;107.50;;;40.60;;
35847;SDS011;22332;51.954;20.118;2023-03-03T01:13:40;104.90;;;38.90;;
35847;SDS011;22332;51.954;20.118;2023-03-03T01:16:49;101.70;;;38.90;;
35847;SDS011;22332;51.954;20.118;2023-03-03T01:19:55;107.80;;;40.30;;
35847;SDS011;22332;51.954;20.118;2023-03-03T01:23:01;102.70;;;39.10;;
35847;SDS011;22332;51.954;20.118;2023-03-03T01:26:06;108.90;;;39.80;;
35847;SDS011;22332;51.954;20.118;2023-03-03T01:29:12;104.10;;;39.00;;
35847;SDS011;22332;51.954;20.118;2023-03-03T01:32:18;102.90;;;38.50;;
35847;SDS011;22332;51.954;20.118;2023-03-03T01:35:24;91.30;;;36.50;;
35847;SDS011;22332;51.954;20.118;2023-03-03T01:38:32;94.40;;;36.40;;
35847;SDS011;22332;51.954;20.118;2023-03-03T01:41:39;104.90;;;39.40;;
35847;SDS011;22332;51.954;20.118;2023-03-03T01:44:45;92.90;;;36.90;;
35847;SDS011;22332;51.954;20.118;2023-03-03T01:47:53;94.90;;;36.70;;
35847;SDS011;22332;51.954;20.118;2023-03-03T01:51:04;101.80;;;37.20;;
35847;SDS011;22332;51.954;20.118;2023-03-03T01:54:19;102.40;;;37.30;;
35847;SDS011;22332;51.954;20.118;2023-03-03T01:57:30;103.80;;;37.10;;
35847;SDS011;22332;51.954;20.118;2023-03-03T02:00:42;95.50;;;34.30;;
35847;SDS011;22332;51.954;20.118;2023-03-03T02:03:53;98.80;;;36.60;;
35847;SDS011;22332;51.954;20.118;2023-03-03T02:07:01;86.70;;;34.20;;
35847;SDS011;22332;51.954;20.118;2023-03-03T02:10:13;92.70;;;36.60;;
35847;SDS011;22332;51.954;20.118;2023-03-03T02:13:20;96.40;;;37.20;;
35847;SDS011;22332;51.954;20.118;2023-03-03T02:16:26;94.20;;;36.50;;
35847;SDS011;22332;51.954;20.118;2023-03-03T02:19:34;98.60;;;37.20;;
35847;SDS011;22332;51.954;20.118;2023-03-03T02:22:49;92.80;;;36.40;;
35847;SDS011;22332;51.954;20.118;2023-03-03T02:26:06;94.60;;;36.00;;
35847;SDS011;22332;51.954;20.118;2023-03-03T02:29:15;93.10;;;34.40;;
35847;SDS011;22332;51.954;20.118;2023-03-03T02:32:21;92.40;;;36.60;;
35847;SDS011;22332;51.954;20.118;2023-03-03T02:35:31;94.80;;;35.10;;
35847;SDS011;22332;51.954;20.118;2023-03-03T02:38:40;96.20;;;36.20;;
35847;SDS011;22332;51.954;20.118;2023-03-03T02:41:52;94.70;;;35.90;;
35847;SDS011;22332;51.954;20.118;2023-03-03T02:45:08;91.60;;;34.50;;
35847;SDS011;22332;51.954;20.118;2023-03-03T02:48:14;91.30;;;35.70;;
35847;SDS011;22332;51.954;20.118;2023-03-03T02:51:20;94.50;;;35.20;;
35847;SDS011;22332;51.954;20.118;2023-03-03T02:54:26;93.10;;;34.20;;
35847;SDS011;22332;51.954;20.118;2023-03-03T02:57:33;91.00;;;35.60;;
35847;SDS011;22332;51.954;20.118;2023-03-03T03:00:40;86.40;;;34.50;;
35847;SDS011;22332;51.954;20.118;2023-03-03T03:03:46;88.60;;;34.70;;
35847;SDS011;22332;51.954;20.118;2023-03-03T03:06:54;87.40;;;33.70;;
35847;SDS011;22332;51.954;20.118;2023-03-03T03:10:01;92.50;;;35.30;;
35847;SDS011;22332;51.954;20.118;2023-03-03T03:13:08;95.20;;;34.60;;
35847;SDS011;22332;51.954;20.118;2023-03-03T03:16:17;84.00;;;33.60;;
35847;SDS011;22332;51.954;20.118;2023-03-03T03:19:23;82.20;;;31.70;;
35847;SDS011;22332;51.954;20.118;2023-03-03T03:22:29;87.60;;;33.90;;
35847;SDS011;22332;51.954;20.118;2023-03-03T03:25:35;84.20;;;33.60;;
35847;SDS011;22332;51.954;20.118;2023-03-03T03:28:47;89.70;;;33.30;;
35847;SDS011;22332;51.954;20.118;2023-03-03T03:31:54;84.60;;;35.00;;
35847;SDS011;22332;51.954;20.118;2023-03-03T03:35:00;85.00;;;36.40;;
35847;SDS011;22332;51.954;20.118;2023-03-03T03:38:06;94.10;;;38.20;;
35847;SDS011;22332;51.954;20.118;2023-03-03T03:41:12;92.40;;;38.60;;
35847;SDS011;22332;51.954;20.118;2023-03-03T03:44:18;91.60;;;37.30;;
35847;SDS011;22332;51.954;20.118;2023-03-03T03:47:26;90.00;;;36.70;;
35847;SDS011;22332;51.954;20.118;2023-03-03T03:50:33;84.40;;;36.10;;
35847;SDS011;22332;51.954;20.118;2023-03-03T03:53:41;90.30;;;36.00;;
35847;SDS011;22332;51.954;20.118;2023-03-03T03:56:47;94.30;;;35.90;;
35847;SDS011;22332;51.954;20.118;2023-03-03T03:59:55;102.60;;;39.60;;
35847;SDS011;22332;51.954;20.118;2023-03-03T04:03:01;98.40;;;38.10;;
35847;SDS011;22332;51.954;20.118;2023-03-03T04:06:07;104.10;;;39.30;;
35847;SDS011;22332;51.954;20.118;2023-03-03T04:09:12;92.70;;;36.10;;
35847;SDS011;22332;51.954;20.118;2023-03-03T04:12:19;306.00;;;87.30;;
35847;SDS011;22332;51.954;20.118;2023-03-03T04:15:25;231.80;;;74.90;;
35847;SDS011;22332;51.954;20.118;2023-03-03T04:18:31;129.00;;;47.60;;
35847;SDS011;22332;51.954;20.118;2023-03-03T04:21:37;185.20;;;60.90;;
35847;SDS011;22332;51.954;20.118;2023-03-03T04:24:43;131.40;;;43.80;;
35847;SDS011;22332;51.954;20.118;2023-03-03T04:27:50;137.60;;;47.20;;
35847;SDS011;22332;51.954;20.118;2023-03-03T04:30:57;138.00;;;45.40;;
35847;SDS011;22332;51.954;20.118;2023-03-03T04:34:04;182.60;;;55.30;;
35847;SDS011;22332;51.954;20.118;2023-03-03T04:37:09;665.40;;;182.40;;
35847;SDS011;22332;51.954;20.118;2023-03-03T04:40:15;135.90;;;44.60;;
35847;SDS011;22332;51.954;20.118;2023-03-03T04:43:23;250.80;;;81.30;;
35847;SDS011;22332;51.954;20.118;2023-03-03T04:46:29;788.30;;;246.70;;
35847;SDS011;22332;51.954;20.118;2023-03-03T04:49:36;566.90;;;176.30;;
35847;SDS011;22332;51.954;20.118;2023-03-03T04:52:41;213.80;;;67.60;;
35847;SDS011;22332;51.954;20.118;2023-03-03T04:55:50;93.70;;;36.00;;
35847;SDS011;22332;51.954;20.118;2023-03-03T04:58:56;188.20;;;89.90;;
35847;SDS011;22332;51.954;20.118;2023-03-03T05:02:02;147.80;;;57.60;;
35847;SDS011;22332;51.954;20.118;2023-03-03T05:05:08;70.40;;;30.10;;
35847;SDS011;22332;51.954;20.118;2023-03-03T05:08:15;73.40;;;30.90;;
35847;SDS011;22332;51.954;20.118;2023-03-03T05:11:21;88.50;;;38.40;;
35847;SDS011;22332;51.954;20.118;2023-03-03T05:14:27;74.60;;;31.00;;
35847;SDS011;22332;51.954;20.118;2023-03-03T05:17:33;104.50;;;40.40;;
35847;SDS011;22332;51.954;20.118;2023-03-03T05:20:40;129.60;;;52.60;;
35847;SDS011;22332;51.954;20.118;2023-03-03T05:23:45;89.40;;;36.60;;
35847;SDS011;22332;51.954;20.118;2023-03-03T05:26:51;119.70;;;47.90;;
35847;SDS011;22332;51.954;20.118;2023-03-03T05:29:57;250.40;;;67.30;;
35847;SDS011;22332;51.954;20.118;2023-03-03T05:33:02;179.70;;;52.10;;
35847;SDS011;22332;51.954;20.118;2023-03-03T05:36:08;222.60;;;64.10;;
35847;SDS011;22332;51.954;20.118;2023-03-03T05:39:14;148.60;;;44.50;;
35847;SDS011;22332;51.954;20.118;2023-03-03T05:42:20;333.70;;;92.80;;
35847;SDS011;22332;51.954;20.118;2023-03-03T05:45:26;322.50;;;84.60;;
35847;SDS011;22332;51.954;20.118;2023-03-03T05:48:31;264.80;;;71.20;;
35847;SDS011;22332;51.954;20.118;2023-03-03T05:51:37;382.00;;;108.40;;
35847;SDS011;22332;51.954;20.118;2023-03-03T05:54:43;434.80;;;119.90;;
35847;SDS011;22332;51.954;20.118;2023-03-03T05:57:49;347.80;;;87.90;;
35847;SDS011;22332;51.954;20.118;2023-03-03T06:00:54;216.60;;;56.20;;
35847;SDS011;22332;51.954;20.118;2023-03-03T06:04:00;319.90;;;75.20;;
35847;SDS011;22332;51.954;20.118;2023-03-03T06:07:06;151.30;;;40.30;;
35847;SDS011;22332;51.954;20.118;2023-03-03T06:10:12;569.60;;;139.00;;
35847;SDS011;22332;51.954;20.118;2023-03-03T06:13:18;369.10;;;87.60;;
35847;SDS011;22332;51.954;20.118;2023-03-03T06:16:24;449.50;;;110.40;;
35847;SDS011;22332;51.954;20.118;2023-03-03T06:19:29;484.90;;;118.70;;
35847;SDS011;22332;51.954;20.118;2023-03-03T06:22:35;354.50;;;83.20;;
35847;SDS011;22332;51.954;20.118;2023-03-03T06:25:41;912.20;;;240.80;;
35847;SDS011;22332;51.954;20.118;2023-03-03T06:28:46;736.00;;;188.70;;
35847;SDS011;22332;51.954;20.118;2023-03-03T06:31:55;549.30;;;127.10;;
35847;SDS011;22332;51.954;20.118;2023-03-03T06:35:01;717.50;;;195.50;;
35847;SDS011;22332;51.954;20.118;2023-03-03T06:38:07;385.20;;;95.60;;
35847;SDS011;22332;51.954;20.118;2023-03-03T06:41:13;283.60;;;71.10;;
35847;SDS011;22332;51.954;20.118;2023-03-03T06:44:19;390.90;;;99.40;;
35847;SDS011;22332;51.954;20.118;2023-03-03T06:47:24;499.80;;;124.80;;
35847;SDS011;22332;51.954;20.118;2023-03-03T06:50:30;415.30;;;105.20;;
35847;SDS011;22332;51.954;20.118;2023-03-03T06:53:36;159.90;;;49.30;;
35847;SDS011;22332;51.954;20.118;2023-03-03T06:56:42;95.60;;;37.10;;
35847;SDS011;22332;51.954;20.118;2023-03-03T06:59:50;247.20;;;66.80;;
35847;SDS011;22332;51.954;20.118;2023-03-03T07:02:58;104.30;;;37.60;;
35847;SDS011;22332;51.954;20.118;2023-03-03T07:06:19;136.00;;;43.90;;
35847;SDS011;22332;51.954;20.118;2023-03-03T07:09:27;232.40;;;53.00;;
35847;SDS011;22332;51.954;20.118;2023-03-03T07:12:33;209.90;;;51.00;;
35847;SDS011;22332;51.954;20.118;2023-03-03T07:15:39;85.10;;;32.80;;
35847;SDS011;22332;51.954;20.118;2023-03-03T07:18:48;194.80;;;58.30;;
35847;SDS011;22332;51.954;20.118;2023-03-03T07:21:55;101.60;;;38.50;;
35847;SDS011;22332;51.954;20.118;2023-03-03T07:25:05;102.70;;;40.00;;
35847;SDS011;22332;51.954;20.118;2023-03-03T07:28:26;180.00;;;61.10;;
35847;SDS011;22332;51.954;20.118;2023-03-03T07:31:34;165.30;;;64.30;;
35847;SDS011;22332;51.954;20.118;2023-03-03T07:34:43;338.70;;;87.30;;
35847;SDS011;22332;51.954;20.118;2023-03-03T07:37:50;274.40;;;72.70;;
35847;SDS011;22332;51.954;20.118;2023-03-03T07:40:57;189.70;;;56.60;;
35847;SDS011;22332;51.954;20.118;2023-03-03T07:44:16;90.00;;;34.20;;
35847;SDS011;22332;51.954;20.118;2023-03-03T07:47:24;87.90;;;33.80;;
35847;SDS011;22332;51.954;20.118;2023-03-03T07:50:32;60.80;;;26.60;;
35847;SDS011;22332;51.954;20.118;2023-03-03T07:53:39;86.50;;;36.50;;
35847;SDS011;22332;51.954;20.118;2023-03-03T07:56:44;191.90;;;60.60;;
35847;SDS011;22332;51.954;20.118;2023-03-03T07:59:51;231.80;;;77.00;;
35847;SDS011;22332;51.954;20.118;2023-03-03T08:03:04;272.00;;;98.10;;
35847;SDS011;22332;51.954;20.118;2023-03-03T08:06:26;150.10;;;71.80;;
35847;SDS011;22332;51.954;20.118;2023-03-03T08:09:41;112.70;;;55.00;;
35847;SDS011;22332;51.954;20.118;2023-03-03T08:12:49;143.60;;;70.50;;
35847;SDS011;22332;51.954;20.118;2023-03-03T08:15:56;113.80;;;55.60;;
35847;SDS011;22332;51.954;20.118;2023-03-03T08:19:05;76.80;;;36.50;;
35847;SDS011;22332;51.954;20.118;2023-03-03T08:22:15;70.70;;;33.40;;
35847;SDS011;22332;51.954;20.118;2023-03-03T08:25:27;81.20;;;39.60;;
35847;SDS011;22332;51.954;20.118;2023-03-03T08:28:33;73.70;;;34.10;;
35847;SDS011;22332;51.954;20.118;2023-03-03T08:31:39;65.10;;;29.10;;
35847;SDS011;22332;51.954;20.118;2023-03-03T08:34:44;66.30;;;31.00;;
35847;SDS011;22332;51.954;20.118;2023-03-03T08:37:50;57.80;;;26.50;;
35847;SDS011;22332;51.954;20.118;2023-03-03T08:40:56;62.80;;;30.00;;
35847;SDS011;22332;51.954;20.118;2023-03-03T08:44:02;66.10;;;31.20;;
35847;SDS011;22332;51.954;20.118;2023-03-03T08:47:08;55.80;;;26.70;;
35847;SDS011;22332;51.954;20.118;2023-03-03T08:50:14;56.10;;;25.60;;
35847;SDS011;22332;51.954;20.118;2023-03-03T08:53:20;53.00;;;25.70;;
35847;SDS011;22332;51.954;20.118;2023-03-03T08:56:27;64.60;;;29.60;;
35847;SDS011;22332;51.954;20.118;2023-03-03T08:59:32;62.20;;;28.20;;
35847;SDS011;22332;51.954;20.118;2023-03-03T09:02:40;54.90;;;27.70;;
35847;SDS011;22332;51.954;20.118;2023-03-03T09:05:46;52.70;;;26.40;;
35847;SDS011;22332;51.954;20.118;2023-03-03T09:08:52;58.10;;;27.80;;
35847;SDS011;22332;51.954;20.118;2023-03-03T09:11:58;59.70;;;27.50;;
35847;SDS011;22332;51.954;20.118;2023-03-03T09:15:17;63.20;;;29.90;;
35847;SDS011;22332;51.954;20.118;2023-03-03T09:18:28;58.40;;;27.70;;
35847;SDS011;22332;51.954;20.118;2023-03-03T09:21:39;59.40;;;28.30;;
35847;SDS011;22332;51.954;20.118;2023-03-03T09:24:45;58.30;;;28.00;;
35847;SDS011;22332;51.954;20.118;2023-03-03T09:27:52;59.90;;;27.10;;
35847;SDS011;22332;51.954;20.118;2023-03-03T09:30:59;58.50;;;28.50;;
35847;SDS011;22332;51.954;20.118;2023-03-03T09:34:12;65.70;;;30.20;;
35847;SDS011;22332;51.954;20.118;2023-03-03T09:37:23;120.50;;;43.40;;
35847;SDS011;22332;51.954;20.118;2023-03-03T09:40:40;132.40;;;42.00;;
35847;SDS011;22332;51.954;20.118;2023-03-03T09:44:02;55.70;;;25.80;;
35847;SDS011;22332;51.954;20.118;2023-03-03T09:47:25;54.60;;;24.50;;
35847;SDS011;22332;51.954;20.118;2023-03-03T09:50:43;107.70;;;37.20;;
35847;SDS011;22332;51.954;20.118;2023-03-03T09:54:01;112.80;;;38.10;;
35847;SDS011;22332;51.954;20.118;2023-03-03T09:57:19;74.50;;;29.00;;
35847;SDS011;22332;51.954;20.118;2023-03-03T10:00:35;132.60;;;43.00;;
35847;SDS011;22332;51.954;20.118;2023-03-03T10:07:11;500.40;;;153.80;;
35847;SDS011;22332;51.954;20.118;2023-03-03T10:10:28;54.10;;;23.30;;
35847;SDS011;22332;51.954;20.118;2023-03-03T10:13:58;51.00;;;22.10;;
35847;SDS011;22332;51.954;20.118;2023-03-03T10:17:24;50.30;;;23.90;;
35847;SDS011;22332;51.954;20.118;2023-03-03T10:20:49;81.10;;;32.10;;
35847;SDS011;22332;51.954;20.118;2023-03-03T10:24:08;54.80;;;24.80;;
35847;SDS011;22332;51.954;20.118;2023-03-03T10:27:29;50.50;;;22.20;;
35847;SDS011;22332;51.954;20.118;2023-03-03T10:30:49;47.50;;;22.10;;
35847;SDS011;22332;51.954;20.118;2023-03-03T10:34:09;43.10;;;19.80;;
35847;SDS011;22332;51.954;20.118;2023-03-03T10:37:31;49.30;;;23.80;;
35847;SDS011;22332;51.954;20.118;2023-03-03T10:40:48;54.10;;;24.80;;
35847;SDS011;22332;51.954;20.118;2023-03-03T10:44:06;54.20;;;26.40;;
35847;SDS011;22332;51.954;20.118;2023-03-03T10:47:35;50.80;;;24.10;;
35847;SDS011;22332;51.954;20.118;2023-03-03T10:51:00;51.10;;;25.40;;
35847;SDS011;22332;51.954;20.118;2023-03-03T10:54:21;51.20;;;26.10;;
35847;SDS011;22332;51.954;20.118;2023-03-03T10:57:38;38.60;;;17.30;;
35847;SDS011;22332;51.954;20.118;2023-03-03T11:00:56;43.90;;;21.70;;
35847;SDS011;22332;51.954;20.118;2023-03-03T11:04:22;40.70;;;20.20;;
35847;SDS011;22332;51.954;20.118;2023-03-03T11:07:36;40.90;;;19.60;;
35847;SDS011;22332;51.954;20.118;2023-03-03T11:10:50;45.10;;;22.50;;
35847;SDS011;22332;51.954;20.118;2023-03-03T11:14:02;46.60;;;22.20;;
35847;SDS011;22332;51.954;20.118;2023-03-03T11:17:17;66.80;;;26.30;;
35847;SDS011;22332;51.954;20.118;2023-03-03T11:20:33;327.70;;;80.10;;
35847;SDS011;22332;51.954;20.118;2023-03-03T11:27:25;232.00;;;60.00;;
35847;SDS011;22332;51.954;20.118;2023-03-03T11:30:45;53.50;;;21.70;;
35847;SDS011;22332;51.954;20.118;2023-03-03T11:34:02;50.50;;;22.90;;
35847;SDS011;22332;51.954;20.118;2023-03-03T11:37:19;58.00;;;23.70;;
35847;SDS011;22332;51.954;20.118;2023-03-03T11:40:29;99.30;;;34.10;;
35847;SDS011;22332;51.954;20.118;2023-03-03T11:43:43;75.70;;;29.20;;
35847;SDS011;22332;51.954;20.118;2023-03-03T11:46:55;96.80;;;36.60;;
35847;SDS011;22332;51.954;20.118;2023-03-03T11:50:07;54.50;;;23.70;;
35847;SDS011;22332;51.954;20.118;2023-03-03T11:53:25;40.00;;;19.50;;
35847;SDS011;22332;51.954;20.118;2023-03-03T11:56:40;43.60;;;19.40;;
35847;SDS011;22332;51.954;20.118;2023-03-03T11:59:48;45.60;;;20.60;;
35847;SDS011;22332;51.954;20.118;2023-03-03T12:03:10;44.90;;;21.00;;
35847;SDS011;22332;51.954;20.118;2023-03-03T12:06:24;46.00;;;20.70;;
35847;SDS011;22332;51.954;20.118;2023-03-03T12:09:37;44.50;;;20.90;;
35847;SDS011;22332;51.954;20.118;2023-03-03T12:12:49;42.10;;;19.50;;
35847;SDS011;22332;51.954;20.118;2023-03-03T12:16:06;41.50;;;19.50;;
35847;SDS011;22332;51.954;20.118;2023-03-03T12:19:17;39.90;;;19.60;;
35847;SDS011;22332;51.954;20.118;2023-03-03T12:22:34;38.30;;;18.30;;
35847;SDS011;22332;51.954;20.118;2023-03-03T12:25:43;41.20;;;18.40;;
35847;SDS011;22332;51.954;20.118;2023-03-03T12:28:52;159.10;;;60.20;;
35847;SDS011;22332;51.954;20.118;2023-03-03T12:32:05;81.50;;;29.80;;
35847;SDS011;22332;51.954;20.118;2023-03-03T12:35:25;46.70;;;20.70;;
35847;SDS011;22332;51.954;20.118;2023-03-03T12:38:39;52.70;;;21.40;;
35847;SDS011;22332;51.954;20.118;2023-03-03T12:45:06;92.80;;;31.00;;
35847;SDS011;22332;51.954;20.118;2023-03-03T12:48:27;294.10;;;88.30;;
35847;SDS011;22332;51.954;20.118;2023-03-03T12:51:44;39.20;;;18.80;;
35847;SDS011;22332;51.954;20.118;2023-03-03T12:55:03;46.60;;;19.80;;
35847;SDS011;22332;51.954;20.118;2023-03-03T12:58:24;38.20;;;17.80;;
35847;SDS011;22332;51.954;20.118;2023-03-03T13:01:44;42.60;;;20.40;;
35847;SDS011;22332;51.954;20.118;2023-03-03T13:05:04;43.40;;;20.90;;
35847;SDS011;22332;51.954;20.118;2023-03-03T13:08:35;40.90;;;19.60;;
35847;SDS011;22332;51.954;20.118;2023-03-03T13:11:54;44.80;;;20.60;;
35847;SDS011;22332;51.954;20.118;2023-03-03T13:15:12;47.50;;;21.10;;
35847;SDS011;22332;51.954;20.118;2023-03-03T13:18:26;42.40;;;19.50;;
35847;SDS011;22332;51.954;20.118;2023-03-03T13:21:44;46.90;;;22.00;;
35847;SDS011;22332;51.954;20.118;2023-03-03T13:24:56;42.60;;;20.30;;
35847;SDS011;22332;51.954;20.118;2023-03-03T13:31:15;40.20;;;18.30;;
35847;SDS011;22332;51.954;20.118;2023-03-03T13:34:27;37.80;;;16.60;;
35847;SDS011;22332;51.954;20.118;2023-03-03T13:37:41;34.20;;;15.30;;
35847;SDS011;22332;51.954;20.118;2023-03-03T13:40:52;32.10;;;15.90;;
35847;SDS011;22332;51.954;20.118;2023-03-03T13:44:05;38.50;;;17.80;;
35847;SDS011;22332;51.954;20.118;2023-03-03T13:47:15;44.40;;;19.80;;
35847;SDS011;22332;51.954;20.118;2023-03-03T13:50:29;349.80;;;106.60;;
35847;SDS011;22332;51.954;20.118;2023-03-03T13:53:43;101.30;;;38.40;;
35847;SDS011;22332;51.954;20.118;2023-03-03T13:57:09;128.60;;;53.10;;
35847;SDS011;22332;51.954;20.118;2023-03-03T14:00:26;59.50;;;29.00;;
35847;SDS011;22332;51.954;20.118;2023-03-03T14:03:42;54.10;;;25.90;;
35847;SDS011;22332;51.954;20.118;2023-03-03T14:06:58;40.80;;;19.20;;
35847;SDS011;22332;51.954;20.118;2023-03-03T14:10:15;42.60;;;20.10;;
35847;SDS011;22332;51.954;20.118;2023-03-03T14:13:28;42.00;;;19.70;;
35847;SDS011;22332;51.954;20.118;2023-03-03T14:16:45;48.50;;;22.00;;
35847;SDS011;22332;51.954;20.118;2023-03-03T14:19:58;47.30;;;21.90;;
35847;SDS011;22332;51.954;20.118;2023-03-03T14:23:15;57.10;;;23.50;;
35847;SDS011;22332;51.954;20.118;2023-03-03T14:26:25;47.20;;;21.20;;
35847;SDS011;22332;51.954;20.118;2023-03-03T14:29:31;38.10;;;18.70;;
35847;SDS011;22332;51.954;20.118;2023-03-03T14:32:38;40.80;;;19.10;;
35847;SDS011;22332;51.954;20.118;2023-03-03T14:35:47;248.90;;;88.90;;
35847;SDS011;22332;51.954;20.118;2023-03-03T14:39:08;343.80;;;94.30;;
35847;SDS011;22332;51.954;20.118;2023-03-03T14:42:36;66.70;;;26.10;;
35847;SDS011;22332;51.954;20.118;2023-03-03T14:45:50;412.60;;;119.30;;
35847;SDS011;22332;51.954;20.118;2023-03-03T14:48:57;66.30;;;27.40;;
35847;SDS011;22332;51.954;20.118;2023-03-03T14:52:07;133.80;;;49.50;;
35847;SDS011;22332;51.954;20.118;2023-03-03T14:55:30;281.10;;;98.90;;
35847;SDS011;22332;51.954;20.118;2023-03-03T14:58:40;310.50;;;116.80;;
35847;SDS011;22332;51.954;20.118;2023-03-03T15:01:46;384.40;;;155.40;;
35847;SDS011;22332;51.954;20.118;2023-03-03T15:05:12;106.20;;;45.30;;
35847;SDS011;22332;51.954;20.118;2023-03-03T15:08:30;134.90;;;69.70;;
35847;SDS011;22332;51.954;20.118;2023-03-03T15:11:37;77.90;;;40.60;;
35847;SDS011;22332;51.954;20.118;2023-03-03T15:14:43;113.50;;;58.30;;
35847;SDS011;22332;51.954;20.118;2023-03-03T15:17:54;45.70;;;23.20;;
35847;SDS011;22332;51.954;20.118;2023-03-03T15:21:05;79.90;;;36.70;;
35847;SDS011;22332;51.954;20.118;2023-03-03T15:24:14;49.10;;;25.40;;
35847;SDS011;22332;51.954;20.118;2023-03-03T15:27:26;42.30;;;22.10;;
35847;SDS011;22332;51.954;20.118;2023-03-03T15:30:37;40.30;;;18.50;;
35847;SDS011;22332;51.954;20.118;2023-03-03T15:33:55;40.80;;;21.40;;
35847;SDS011;22332;51.954;20.118;2023-03-03T15:37:19;38.20;;;20.20;;
35847;SDS011;22332;51.954;20.118;2023-03-03T15:40:36;199.20;;;66.80;;
35847;SDS011;22332;51.954;20.118;2023-03-03T15:47:06;288.10;;;78.80;;
35847;SDS011;22332;51.954;20.118;2023-03-03T15:50:35;572.60;;;165.00;;
35847;SDS011;22332;51.954;20.118;2023-03-03T15:54:00;134.10;;;42.70;;
35847;SDS011;22332;51.954;20.118;2023-03-03T15:57:22;51.50;;;24.70;;
35847;SDS011;22332;51.954;20.118;2023-03-03T16:00:43;454.00;;;136.30;;
35847;SDS011;22332;51.954;20.118;2023-03-03T16:04:00;284.20;;;89.70;;
35847;SDS011;22332;51.954;20.118;2023-03-03T16:07:15;74.20;;;31.70;;
35847;SDS011;22332;51.954;20.118;2023-03-03T16:10:35;62.80;;;30.00;;
35847;SDS011;22332;51.954;20.118;2023-03-03T16:13:51;46.60;;;24.60;;
35847;SDS011;22332;51.954;20.118;2023-03-03T16:17:09;45.20;;;25.10;;
35847;SDS011;22332;51.954;20.118;2023-03-03T16:20:24;36.60;;;18.70;;
35847;SDS011;22332;51.954;20.118;2023-03-03T16:23:35;36.30;;;18.00;;
35847;SDS011;22332;51.954;20.118;2023-03-03T16:26:50;31.90;;;17.00;;
35847;SDS011;22332;51.954;20.118;2023-03-03T16:30:08;39.90;;;22.40;;
35847;SDS011;22332;51.954;20.118;2023-03-03T16:33:30;43.70;;;24.50;;
35847;SDS011;22332;51.954;20.118;2023-03-03T16:36:56;38.90;;;21.20;;
35847;SDS011;22332;51.954;20.118;2023-03-03T16:40:14;37.70;;;20.30;;
35847;SDS011;22332;51.954;20.118;2023-03-03T16:43:25;40.00;;;21.70;;
35847;SDS011;22332;51.954;20.118;2023-03-03T16:46:37;40.40;;;21.70;;
35847;SDS011;22332;51.954;20.118;2023-03-03T16:49:47;42.20;;;21.30;;
35847;SDS011;22332;51.954;20.118;2023-03-03T16:53:16;44.40;;;21.30;;
35847;SDS011;22332;51.954;20.118;2023-03-03T16:56:30;35.20;;;17.40;;
35847;SDS011;22332;51.954;20.118;2023-03-03T16:59:54;35.90;;;18.00;;
35847;SDS011;22332;51.954;20.118;2023-03-03T17:03:16;46.00;;;23.90;;
35847;SDS011;22332;51.954;20.118;2023-03-03T17:06:35;39.40;;;20.00;;
35847;SDS011;22332;51.954;20.118;2023-03-03T17:09:51;38.80;;;20.90;;
35847;SDS011;22332;51.954;20.118;2023-03-03T17:16:47;224.80;;;71.20;;
35847;SDS011;22332;51.954;20.118;2023-03-03T17:20:05;96.00;;;35.00;;
35847;SDS011;22332;51.954;20.118;2023-03-03T17:23:24;380.20;;;111.50;;
35847;SDS011;22332;51.954;20.118;2023-03-03T17:26:44;67.80;;;26.80;;
35847;SDS011;22332;51.954;20.118;2023-03-03T17:30:04;164.20;;;63.40;;
35847;SDS011;22332;51.954;20.118;2023-03-03T17:33:20;68.40;;;29.00;;
35847;SDS011;22332;51.954;20.118;2023-03-03T17:36:41;48.70;;;23.60;;
35847;SDS011;22332;51.954;20.118;2023-03-03T17:40:00;49.00;;;26.10;;
35847;SDS011;22332;51.954;20.118;2023-03-03T17:43:16;51.90;;;27.20;;
35847;SDS011;22332;51.954;20.118;2023-03-03T17:46:27;45.50;;;24.30;;
35847;SDS011;22332;51.954;20.118;2023-03-03T17:49:48;48.90;;;24.00;;
35847;SDS011;22332;51.954;20.118;2023-03-03T17:53:17;44.30;;;23.90;;
35847;SDS011;22332;51.954;20.118;2023-03-03T17:56:34;90.30;;;38.30;;
35847;SDS011;22332;51.954;20.118;2023-03-03T17:59:50;45.00;;;23.30;;
35847;SDS011;22332;51.954;20.118;2023-03-03T18:06:36;39.10;;;21.70;;
35847;SDS011;22332;51.954;20.118;2023-03-03T18:10:04;40.00;;;20.40;;
35847;SDS011;22332;51.954;20.118;2023-03-03T18:17:13;64.60;;;25.30;;
35847;SDS011;22332;51.954;20.118;2023-03-03T18:20:42;48.50;;;20.70;;
35847;SDS011;22332;51.954;20.118;2023-03-03T18:27:38;292.40;;;98.50;;
35847;SDS011;22332;51.954;20.118;2023-03-03T18:30:52;411.80;;;112.70;;
35847;SDS011;22332;51.954;20.118;2023-03-03T18:34:01;522.30;;;143.30;;
35847;SDS011;22332;51.954;20.118;2023-03-03T18:37:34;508.40;;;144.50;;
35847;SDS011;22332;51.954;20.118;2023-03-03T18:40:51;387.20;;;107.30;;
35847;SDS011;22332;51.954;20.118;2023-03-03T18:44:00;264.50;;;75.50;;
35847;SDS011;22332;51.954;20.118;2023-03-03T18:51:05;407.00;;;148.90;;
35847;SDS011;22332;51.954;20.118;2023-03-03T18:54:21;167.70;;;64.50;;